sensor_id;sensor_type;location;lat;lon;timestamp;P1;durP1;ratioP1;P2;durP2;ratioP2
79464;SDS011;68932;47.410;8.232;2023-10-09T00:00:03;13.50;;;5.20;;
79464;SDS011;68932;47.410;8.232;2023-10-09T00:02:33;11.80;;;5.30;;
79464;SDS011;68932;47.410;8.232;2023-10-09T00:05:04;10.60;;;4.60;;
79464;SDS011;68932;47.410;8.232;2023-10-09T00:07:33;15.60;;;5.90;;
79464;SDS011;68932;47.410;8.232;2023-10-09T00:10:01;16.30;;;5.70;;
79464;SDS011;68932;47.410;8.232;2023-10-09T00:12:30;11.40;;;5.60;;
79464;SDS011;68932;47.410;8.232;2023-10-09T00:14:58;9.60;;;5.40;;
79464;SDS011;68932;47.410;8.232;2023-10-09T00:17:27;11.90;;;6.10;;
79464;SDS011;68932;47.410;8.232;2023-10-09T00:19:55;13.50;;;6.30;;
79464;SDS011;68932;47.410;8.232;2023-10-09T00:22:24;12.00;;;5.40;;
79464;SDS011;68932;47.410;8.232;2023-10-09T00:24:52;13.90;;;5.70;;
79464;SDS011;68932;47.410;8.232;2023-10-09T00:27:22;14.00;;;5.50;;
79464;SDS011;68932;47.410;8.232;2023-10-09T00:29:50;13.20;;;5.30;;
79464;SDS011;68932;47.410;8.232;2023-10-09T00:32:18;11.40;;;5.90;;
79464;SDS011;68932;47.410;8.232;2023-10-09T00:34:46;12.40;;;5.50;;
79464;SDS011;68932;47.410;8.232;2023-10-09T00:37:15;13.70;;;5.80;;
79464;SDS011;68932;47.410;8.232;2023-10-09T00:39:43;11.30;;;6.10;;
79464;SDS011;68932;47.410;8.232;2023-10-09T00:42:12;15.30;;;6.60;;
79464;SDS011;68932;47.410;8.232;2023-10-09T00:44:40;15.60;;;5.80;;
79464;SDS011;68932;47.410;8.232;2023-10-09T00:47:09;15.20;;;5.90;;
79464;SDS011;68932;47.410;8.232;2023-10-09T00:49:39;13.90;;;6.00;;
79464;SDS011;68932;47.410;8.232;2023-10-09T00:52:07;15.20;;;6.20;;
79464;SDS011;68932;47.410;8.232;2023-10-09T00:54:36;16.10;;;5.90;;
79464;SDS011;68932;47.410;8.232;2023-10-09T00:57:05;12.10;;;5.50;;
79464;SDS011;68932;47.410;8.232;2023-10-09T00:59:33;14.30;;;6.10;;
79464;SDS011;68932;47.410;8.232;2023-10-09T01:02:03;10.50;;;6.00;;
79464;SDS011;68932;47.410;8.232;2023-10-09T01:04:31;15.10;;;6.70;;
79464;SDS011;68932;47.410;8.232;2023-10-09T01:06:59;12.80;;;5.70;;
79464;SDS011;68932;47.410;8.232;2023-10-09T01:09:27;11.30;;;5.80;;
79464;SDS011;68932;47.410;8.232;2023-10-09T01:11:56;12.00;;;5.80;;
79464;SDS011;68932;47.410;8.232;2023-10-09T01:14:24;9.10;;;5.10;;
79464;SDS011;68932;47.410;8.232;2023-10-09T01:16:52;13.90;;;6.20;;
79464;SDS011;68932;47.410;8.232;2023-10-09T01:19:21;16.00;;;6.90;;
79464;SDS011;68932;47.410;8.232;2023-10-09T01:21:49;13.10;;;5.60;;
79464;SDS011;68932;47.410;8.232;2023-10-09T01:24:18;14.40;;;6.00;;
79464;SDS011;68932;47.410;8.232;2023-10-09T01:26:47;10.80;;;5.90;;
79464;SDS011;68932;47.410;8.232;2023-10-09T01:29:16;13.90;;;6.20;;
79464;SDS011;68932;47.410;8.232;2023-10-09T01:31:46;13.90;;;6.40;;
79464;SDS011;68932;47.410;8.232;2023-10-09T01:34:15;11.00;;;5.70;;
79464;SDS011;68932;47.410;8.232;2023-10-09T01:36:44;15.20;;;5.70;;
79464;SDS011;68932;47.410;8.232;2023-10-09T01:39:12;14.50;;;6.00;;
79464;SDS011;68932;47.410;8.232;2023-10-09T01:41:41;12.40;;;6.10;;
79464;SDS011;68932;47.410;8.232;2023-10-09T01:44:09;12.80;;;5.50;;
79464;SDS011;68932;47.410;8.232;2023-10-09T01:46:37;14.00;;;5.40;;
79464;SDS011;68932;47.410;8.232;2023-10-09T01:49:05;11.80;;;5.20;;
79464;SDS011;68932;47.410;8.232;2023-10-09T01:51:34;13.50;;;5.20;;
79464;SDS011;68932;47.410;8.232;2023-10-09T01:54:02;13.00;;;5.40;;
79464;SDS011;68932;47.410;8.232;2023-10-09T01:56:30;9.50;;;5.20;;
79464;SDS011;68932;47.410;8.232;2023-10-09T01:58:59;10.90;;;5.00;;
79464;SDS011;68932;47.410;8.232;2023-10-09T02:01:27;16.10;;;7.30;;
79464;SDS011;68932;47.410;8.232;2023-10-09T02:03:55;13.00;;;5.40;;
79464;SDS011;68932;47.410;8.232;2023-10-09T02:06:24;12.10;;;5.50;;
79464;SDS011;68932;47.410;8.232;2023-10-09T02:08:53;16.40;;;5.90;;
79464;SDS011;68932;47.410;8.232;2023-10-09T02:11:21;14.50;;;5.80;;
79464;SDS011;68932;47.410;8.232;2023-10-09T02:13:50;10.60;;;5.00;;
79464;SDS011;68932;47.410;8.232;2023-10-09T02:16:18;12.60;;;5.50;;
79464;SDS011;68932;47.410;8.232;2023-10-09T02:18:46;12.40;;;5.00;;
79464;SDS011;68932;47.410;8.232;2023-10-09T02:21:15;12.70;;;5.70;;
79464;SDS011;68932;47.410;8.232;2023-10-09T02:23:43;11.20;;;4.90;;
79464;SDS011;68932;47.410;8.232;2023-10-09T02:26:12;11.90;;;5.30;;
79464;SDS011;68932;47.410;8.232;2023-10-09T02:28:41;14.80;;;5.20;;
79464;SDS011;68932;47.410;8.232;2023-10-09T02:31:12;14.60;;;7.40;;
79464;SDS011;68932;47.410;8.232;2023-10-09T02:33:41;15.70;;;6.30;;
79464;SDS011;68932;47.410;8.232;2023-10-09T02:36:09;10.80;;;6.00;;
79464;SDS011;68932;47.410;8.232;2023-10-09T02:38:37;12.80;;;4.90;;
79464;SDS011;68932;47.410;8.232;2023-10-09T02:41:06;14.90;;;5.80;;
79464;SDS011;68932;47.410;8.232;2023-10-09T02:43:35;13.10;;;5.10;;
79464;SDS011;68932;47.410;8.232;2023-10-09T02:46:03;17.90;;;6.40;;
79464;SDS011;68932;47.410;8.232;2023-10-09T02:48:31;18.40;;;6.00;;
79464;SDS011;68932;47.410;8.232;2023-10-09T02:51:00;14.10;;;5.70;;
79464;SDS011;68932;47.410;8.232;2023-10-09T02:53:28;15.30;;;5.00;;
79464;SDS011;68932;47.410;8.232;2023-10-09T02:55:56;14.60;;;5.40;;
79464;SDS011;68932;47.410;8.232;2023-10-09T02:58:24;15.60;;;5.70;;
79464;SDS011;68932;47.410;8.232;2023-10-09T03:00:53;16.70;;;6.40;;
79464;SDS011;68932;47.410;8.232;2023-10-09T03:03:21;13.50;;;5.50;;
79464;SDS011;68932;47.410;8.232;2023-10-09T03:05:49;16.90;;;5.40;;
79464;SDS011;68932;47.410;8.232;2023-10-09T03:08:18;14.70;;;5.30;;
79464;SDS011;68932;47.410;8.232;2023-10-09T03:10:46;12.50;;;5.50;;
79464;SDS011;68932;47.410;8.232;2023-10-09T03:13:15;12.40;;;5.30;;
79464;SDS011;68932;47.410;8.232;2023-10-09T03:15:43;15.80;;;5.50;;
79464;SDS011;68932;47.410;8.232;2023-10-09T03:18:12;12.50;;;5.60;;
79464;SDS011;68932;47.410;8.232;2023-10-09T03:20:40;15.70;;;5.70;;
79464;SDS011;68932;47.410;8.232;2023-10-09T03:23:08;16.20;;;7.00;;
79464;SDS011;68932;47.410;8.232;2023-10-09T03:25:37;13.60;;;6.20;;
79464;SDS011;68932;47.410;8.232;2023-10-09T03:28:06;10.40;;;5.20;;
79464;SDS011;68932;47.410;8.232;2023-10-09T03:30:34;13.40;;;4.60;;
79464;SDS011;68932;47.410;8.232;2023-10-09T03:33:02;13.30;;;5.70;;
79464;SDS011;68932;47.410;8.232;2023-10-09T03:35:31;16.00;;;5.90;;
79464;SDS011;68932;47.410;8.232;2023-10-09T03:38:00;18.10;;;5.50;;
79464;SDS011;68932;47.410;8.232;2023-10-09T03:40:28;17.40;;;6.90;;
79464;SDS011;68932;47.410;8.232;2023-10-09T03:42:56;15.00;;;5.90;;
79464;SDS011;68932;47.410;8.232;2023-10-09T03:45:25;13.70;;;5.60;;
79464;SDS011;68932;47.410;8.232;2023-10-09T03:47:54;15.70;;;5.80;;
79464;SDS011;68932;47.410;8.232;2023-10-09T03:50:23;15.40;;;6.00;;
79464;SDS011;68932;47.410;8.232;2023-10-09T03:52:51;14.90;;;5.70;;
79464;SDS011;68932;47.410;8.232;2023-10-09T03:55:20;14.20;;;5.50;;
79464;SDS011;68932;47.410;8.232;2023-10-09T03:57:49;16.80;;;6.60;;
79464;SDS011;68932;47.410;8.232;2023-10-09T04:00:17;17.50;;;5.50;;
79464;SDS011;68932;47.410;8.232;2023-10-09T04:02:46;17.00;;;5.60;;
79464;SDS011;68932;47.410;8.232;2023-10-09T04:05:14;10.10;;;4.80;;
79464;SDS011;68932;47.410;8.232;2023-10-09T04:07:43;12.60;;;4.90;;
79464;SDS011;68932;47.410;8.232;2023-10-09T04:10:11;13.20;;;5.00;;
79464;SDS011;68932;47.410;8.232;2023-10-09T04:12:39;15.70;;;4.90;;
79464;SDS011;68932;47.410;8.232;2023-10-09T04:15:09;14.10;;;6.00;;
79464;SDS011;68932;47.410;8.232;2023-10-09T04:17:37;15.90;;;5.50;;
79464;SDS011;68932;47.410;8.232;2023-10-09T04:20:07;12.00;;;5.20;;
79464;SDS011;68932;47.410;8.232;2023-10-09T04:22:36;13.00;;;5.50;;
79464;SDS011;68932;47.410;8.232;2023-10-09T04:25:05;12.60;;;5.00;;
79464;SDS011;68932;47.410;8.232;2023-10-09T04:27:35;14.10;;;5.70;;
79464;SDS011;68932;47.410;8.232;2023-10-09T04:30:03;12.80;;;5.30;;
79464;SDS011;68932;47.410;8.232;2023-10-09T04:32:33;14.80;;;4.90;;
79464;SDS011;68932;47.410;8.232;2023-10-09T04:35:01;20.30;;;5.80;;
79464;SDS011;68932;47.410;8.232;2023-10-09T04:37:30;12.50;;;5.40;;
79464;SDS011;68932;47.410;8.232;2023-10-09T04:39:58;15.20;;;6.00;;
79464;SDS011;68932;47.410;8.232;2023-10-09T04:42:27;13.50;;;5.30;;
79464;SDS011;68932;47.410;8.232;2023-10-09T04:44:55;13.20;;;5.50;;
79464;SDS011;68932;47.410;8.232;2023-10-09T04:47:23;11.90;;;5.40;;
79464;SDS011;68932;47.410;8.232;2023-10-09T04:49:51;14.00;;;5.80;;
79464;SDS011;68932;47.410;8.232;2023-10-09T04:52:21;16.00;;;5.90;;
79464;SDS011;68932;47.410;8.232;2023-10-09T04:54:50;15.60;;;6.10;;
79464;SDS011;68932;47.410;8.232;2023-10-09T04:57:19;14.80;;;5.80;;
79464;SDS011;68932;47.410;8.232;2023-10-09T04:59:47;15.80;;;5.90;;
79464;SDS011;68932;47.410;8.232;2023-10-09T05:02:15;16.20;;;5.40;;
79464;SDS011;68932;47.410;8.232;2023-10-09T05:04:44;17.00;;;5.10;;
79464;SDS011;68932;47.410;8.232;2023-10-09T05:07:12;12.70;;;4.60;;
79464;SDS011;68932;47.410;8.232;2023-10-09T05:09:40;14.50;;;5.30;;
79464;SDS011;68932;47.410;8.232;2023-10-09T05:12:09;15.80;;;5.20;;
79464;SDS011;68932;47.410;8.232;2023-10-09T05:14:37;13.40;;;5.50;;
79464;SDS011;68932;47.410;8.232;2023-10-09T05:17:06;17.10;;;5.40;;
79464;SDS011;68932;47.410;8.232;2023-10-09T05:19:34;15.10;;;5.10;;
79464;SDS011;68932;47.410;8.232;2023-10-09T05:22:03;17.70;;;5.60;;
79464;SDS011;68932;47.410;8.232;2023-10-09T05:24:31;17.70;;;6.40;;
79464;SDS011;68932;47.410;8.232;2023-10-09T05:26:59;14.30;;;5.80;;
79464;SDS011;68932;47.410;8.232;2023-10-09T05:29:28;12.30;;;5.30;;
79464;SDS011;68932;47.410;8.232;2023-10-09T05:31:56;16.40;;;5.60;;
79464;SDS011;68932;47.410;8.232;2023-10-09T05:34:25;10.80;;;4.80;;
79464;SDS011;68932;47.410;8.232;2023-10-09T05:36:53;15.40;;;5.60;;
79464;SDS011;68932;47.410;8.232;2023-10-09T05:39:21;13.90;;;5.40;;
79464;SDS011;68932;47.410;8.232;2023-10-09T05:41:50;12.30;;;4.50;;
79464;SDS011;68932;47.410;8.232;2023-10-09T05:44:18;16.70;;;6.30;;
79464;SDS011;68932;47.410;8.232;2023-10-09T05:46:46;15.80;;;5.60;;
79464;SDS011;68932;47.410;8.232;2023-10-09T05:49:15;16.10;;;5.10;;
79464;SDS011;68932;47.410;8.232;2023-10-09T05:51:43;13.60;;;6.20;;
79464;SDS011;68932;47.410;8.232;2023-10-09T05:54:11;17.00;;;6.00;;
79464;SDS011;68932;47.410;8.232;2023-10-09T05:56:39;15.60;;;5.20;;
79464;SDS011;68932;47.410;8.232;2023-10-09T05:59:07;14.50;;;6.00;;
79464;SDS011;68932;47.410;8.232;2023-10-09T06:01:36;14.40;;;5.60;;
79464;SDS011;68932;47.410;8.232;2023-10-09T06:04:04;14.40;;;5.80;;
79464;SDS011;68932;47.410;8.232;2023-10-09T06:06:32;12.50;;;6.00;;
79464;SDS011;68932;47.410;8.232;2023-10-09T06:09:04;12.40;;;5.20;;
79464;SDS011;68932;47.410;8.232;2023-10-09T06:14:00;12.40;;;4.70;;
79464;SDS011;68932;47.410;8.232;2023-10-09T06:16:28;14.40;;;6.20;;
79464;SDS011;68932;47.410;8.232;2023-10-09T06:18:57;15.50;;;5.60;;
79464;SDS011;68932;47.410;8.232;2023-10-09T06:21:25;14.40;;;5.70;;
79464;SDS011;68932;47.410;8.232;2023-10-09T06:23:53;14.40;;;5.90;;
79464;SDS011;68932;47.410;8.232;2023-10-09T06:26:23;16.60;;;5.30;;
79464;SDS011;68932;47.410;8.232;2023-10-09T06:28:51;12.30;;;5.50;;
79464;SDS011;68932;47.410;8.232;2023-10-09T06:31:19;14.10;;;5.70;;
79464;SDS011;68932;47.410;8.232;2023-10-09T06:33:48;15.80;;;6.20;;
79464;SDS011;68932;47.410;8.232;2023-10-09T06:36:16;14.60;;;5.50;;
79464;SDS011;68932;47.410;8.232;2023-10-09T06:38:44;11.00;;;6.00;;
79464;SDS011;68932;47.410;8.232;2023-10-09T06:41:12;14.40;;;6.40;;
79464;SDS011;68932;47.410;8.232;2023-10-09T06:43:41;17.50;;;6.20;;
79464;SDS011;68932;47.410;8.232;2023-10-09T06:46:14;20.20;;;6.60;;
79464;SDS011;68932;47.410;8.232;2023-10-09T06:48:43;13.50;;;6.40;;
79464;SDS011;68932;47.410;8.232;2023-10-09T06:51:11;15.60;;;6.00;;
79464;SDS011;68932;47.410;8.232;2023-10-09T06:53:40;14.40;;;5.60;;
79464;SDS011;68932;47.410;8.232;2023-10-09T06:56:09;16.20;;;5.80;;
79464;SDS011;68932;47.410;8.232;2023-10-09T06:58:38;13.90;;;5.50;;
79464;SDS011;68932;47.410;8.232;2023-10-09T07:01:06;15.70;;;5.70;;
79464;SDS011;68932;47.410;8.232;2023-10-09T07:03:34;12.00;;;6.10;;
79464;SDS011;68932;47.410;8.232;2023-10-09T07:06:06;14.10;;;5.70;;
79464;SDS011;68932;47.410;8.232;2023-10-09T07:08:35;13.00;;;6.00;;
79464;SDS011;68932;47.410;8.232;2023-10-09T07:11:04;11.40;;;5.20;;
79464;SDS011;68932;47.410;8.232;2023-10-09T07:13:33;13.80;;;5.90;;
79464;SDS011;68932;47.410;8.232;2023-10-09T07:16:01;15.30;;;6.30;;
79464;SDS011;68932;47.410;8.232;2023-10-09T07:18:29;15.20;;;5.50;;
79464;SDS011;68932;47.410;8.232;2023-10-09T07:20:58;16.30;;;6.40;;
79464;SDS011;68932;47.410;8.232;2023-10-09T07:23:26;11.60;;;5.60;;
79464;SDS011;68932;47.410;8.232;2023-10-09T07:26:02;17.40;;;4.90;;
79464;SDS011;68932;47.410;8.232;2023-10-09T07:28:31;15.70;;;6.10;;
79464;SDS011;68932;47.410;8.232;2023-10-09T07:31:00;16.30;;;5.60;;
79464;SDS011;68932;47.410;8.232;2023-10-09T07:33:28;16.80;;;5.70;;
79464;SDS011;68932;47.410;8.232;2023-10-09T07:35:56;15.60;;;5.50;;
79464;SDS011;68932;47.410;8.232;2023-10-09T07:38:27;17.30;;;5.50;;
79464;SDS011;68932;47.410;8.232;2023-10-09T07:40:56;14.20;;;5.60;;
79464;SDS011;68932;47.410;8.232;2023-10-09T07:43:25;14.90;;;5.90;;
79464;SDS011;68932;47.410;8.232;2023-10-09T07:45:54;12.60;;;5.00;;
79464;SDS011;68932;47.410;8.232;2023-10-09T07:48:23;13.90;;;6.10;;
79464;SDS011;68932;47.410;8.232;2023-10-09T07:50:52;12.60;;;4.80;;
79464;SDS011;68932;47.410;8.232;2023-10-09T07:53:20;16.40;;;5.80;;
79464;SDS011;68932;47.410;8.232;2023-10-09T07:55:48;14.80;;;5.60;;
79464;SDS011;68932;47.410;8.232;2023-10-09T07:58:16;18.50;;;6.00;;
79464;SDS011;68932;47.410;8.232;2023-10-09T08:00:45;16.40;;;5.60;;
79464;SDS011;68932;47.410;8.232;2023-10-09T08:03:13;14.00;;;5.20;;
79464;SDS011;68932;47.410;8.232;2023-10-09T08:05:43;13.00;;;5.50;;
79464;SDS011;68932;47.410;8.232;2023-10-09T08:08:11;14.70;;;5.80;;
79464;SDS011;68932;47.410;8.232;2023-10-09T08:10:40;10.30;;;5.70;;
79464;SDS011;68932;47.410;8.232;2023-10-09T08:13:08;12.70;;;5.50;;
79464;SDS011;68932;47.410;8.232;2023-10-09T08:15:36;15.90;;;5.50;;
79464;SDS011;68932;47.410;8.232;2023-10-09T08:18:05;16.00;;;5.60;;
79464;SDS011;68932;47.410;8.232;2023-10-09T08:20:33;18.00;;;5.50;;
79464;SDS011;68932;47.410;8.232;2023-10-09T08:23:02;11.20;;;5.20;;
79464;SDS011;68932;47.410;8.232;2023-10-09T08:25:31;16.10;;;5.20;;
79464;SDS011;68932;47.410;8.232;2023-10-09T08:28:00;16.30;;;4.90;;
79464;SDS011;68932;47.410;8.232;2023-10-09T08:30:29;10.40;;;4.80;;
79464;SDS011;68932;47.410;8.232;2023-10-09T08:32:57;15.10;;;5.10;;
79464;SDS011;68932;47.410;8.232;2023-10-09T08:35:25;13.80;;;5.00;;
79464;SDS011;68932;47.410;8.232;2023-10-09T08:37:54;10.20;;;4.80;;
79464;SDS011;68932;47.410;8.232;2023-10-09T08:40:22;12.50;;;5.30;;
79464;SDS011;68932;47.410;8.232;2023-10-09T08:42:57;13.00;;;4.90;;
79464;SDS011;68932;47.410;8.232;2023-10-09T08:45:36;16.70;;;4.30;;
79464;SDS011;68932;47.410;8.232;2023-10-09T08:48:06;13.30;;;5.10;;
79464;SDS011;68932;47.410;8.232;2023-10-09T08:50:35;15.10;;;5.80;;
79464;SDS011;68932;47.410;8.232;2023-10-09T08:53:04;11.20;;;5.50;;
79464;SDS011;68932;47.410;8.232;2023-10-09T08:55:32;16.40;;;5.10;;
79464;SDS011;68932;47.410;8.232;2023-10-09T08:58:02;15.80;;;5.30;;
79464;SDS011;68932;47.410;8.232;2023-10-09T09:00:31;14.70;;;4.90;;
79464;SDS011;68932;47.410;8.232;2023-10-09T09:03:00;12.20;;;5.10;;
79464;SDS011;68932;47.410;8.232;2023-10-09T09:05:28;16.90;;;4.50;;
79464;SDS011;68932;47.410;8.232;2023-10-09T09:07:57;14.10;;;5.40;;
79464;SDS011;68932;47.410;8.232;2023-10-09T09:10:28;13.60;;;5.00;;
79464;SDS011;68932;47.410;8.232;2023-10-09T09:12:57;14.90;;;5.00;;
79464;SDS011;68932;47.410;8.232;2023-10-09T09:15:26;16.90;;;5.10;;
79464;SDS011;68932;47.410;8.232;2023-10-09T09:18:02;13.70;;;4.20;;
79464;SDS011;68932;47.410;8.232;2023-10-09T09:20:32;14.50;;;4.70;;
79464;SDS011;68932;47.410;8.232;2023-10-09T09:23:00;12.50;;;4.80;;
79464;SDS011;68932;47.410;8.232;2023-10-09T09:25:39;13.20;;;4.60;;
79464;SDS011;68932;47.410;8.232;2023-10-09T09:28:08;14.00;;;4.40;;
79464;SDS011;68932;47.410;8.232;2023-10-09T09:30:37;12.40;;;4.10;;
79464;SDS011;68932;47.410;8.232;2023-10-09T09:33:18;13.10;;;4.70;;
79464;SDS011;68932;47.410;8.232;2023-10-09T09:38:33;13.90;;;4.90;;
79464;SDS011;68932;47.410;8.232;2023-10-09T09:41:02;7.80;;;3.60;;
79464;SDS011;68932;47.410;8.232;2023-10-09T09:43:30;13.60;;;4.50;;
79464;SDS011;68932;47.410;8.232;2023-10-09T09:46:00;13.00;;;5.00;;
79464;SDS011;68932;47.410;8.232;2023-10-09T09:48:29;11.50;;;4.60;;
79464;SDS011;68932;47.410;8.232;2023-10-09T09:50:58;14.10;;;4.80;;
79464;SDS011;68932;47.410;8.232;2023-10-09T09:53:26;9.10;;;3.80;;
79464;SDS011;68932;47.410;8.232;2023-10-09T09:55:55;12.70;;;4.00;;
79464;SDS011;68932;47.410;8.232;2023-10-09T09:58:23;20.60;;;4.30;;
79464;SDS011;68932;47.410;8.232;2023-10-09T10:00:53;10.80;;;3.70;;
79464;SDS011;68932;47.410;8.232;2023-10-09T10:03:39;9.70;;;3.60;;
79464;SDS011;68932;47.410;8.232;2023-10-09T10:06:11;13.80;;;4.20;;
79464;SDS011;68932;47.410;8.232;2023-10-09T10:08:42;13.70;;;3.70;;
79464;SDS011;68932;47.410;8.232;2023-10-09T10:11:11;14.60;;;4.50;;
79464;SDS011;68932;47.410;8.232;2023-10-09T10:14:09;13.90;;;3.90;;
79464;SDS011;68932;47.410;8.232;2023-10-09T10:22:31;12.80;;;3.40;;
79464;SDS011;68932;47.410;8.232;2023-10-09T10:24:59;12.30;;;4.40;;
79464;SDS011;68932;47.410;8.232;2023-10-09T10:27:28;10.50;;;3.70;;
79464;SDS011;68932;47.410;8.232;2023-10-09T10:32:56;10.90;;;3.70;;
79464;SDS011;68932;47.410;8.232;2023-10-09T10:35:25;13.60;;;3.50;;
79464;SDS011;68932;47.410;8.232;2023-10-09T10:37:54;13.10;;;3.80;;
79464;SDS011;68932;47.410;8.232;2023-10-09T10:40:23;15.00;;;3.50;;
79464;SDS011;68932;47.410;8.232;2023-10-09T10:42:52;14.40;;;4.20;;
79464;SDS011;68932;47.410;8.232;2023-10-09T10:45:20;12.50;;;4.80;;
79464;SDS011;68932;47.410;8.232;2023-10-09T10:47:49;14.30;;;3.50;;
79464;SDS011;68932;47.410;8.232;2023-10-09T10:50:18;8.20;;;3.40;;
79464;SDS011;68932;47.410;8.232;2023-10-09T10:52:47;12.30;;;3.40;;
79464;SDS011;68932;47.410;8.232;2023-10-09T10:55:16;9.80;;;4.40;;
79464;SDS011;68932;47.410;8.232;2023-10-09T10:57:44;9.60;;;3.30;;
79464;SDS011;68932;47.410;8.232;2023-10-09T11:00:13;11.60;;;3.50;;
79464;SDS011;68932;47.410;8.232;2023-10-09T11:02:44;14.40;;;4.30;;
79464;SDS011;68932;47.410;8.232;2023-10-09T11:05:13;13.50;;;4.60;;
79464;SDS011;68932;47.410;8.232;2023-10-09T11:07:41;11.90;;;3.10;;
79464;SDS011;68932;47.410;8.232;2023-10-09T11:10:10;8.50;;;3.30;;
79464;SDS011;68932;47.410;8.232;2023-10-09T11:12:44;13.70;;;3.60;;
79464;SDS011;68932;47.410;8.232;2023-10-09T11:15:13;11.20;;;3.40;;
79464;SDS011;68932;47.410;8.232;2023-10-09T11:17:41;10.80;;;3.20;;
79464;SDS011;68932;47.410;8.232;2023-10-09T11:20:10;13.80;;;4.00;;
79464;SDS011;68932;47.410;8.232;2023-10-09T11:22:40;12.00;;;3.10;;
79464;SDS011;68932;47.410;8.232;2023-10-09T11:25:09;10.50;;;3.40;;
79464;SDS011;68932;47.410;8.232;2023-10-09T11:27:37;12.10;;;3.00;;
79464;SDS011;68932;47.410;8.232;2023-10-09T11:30:08;12.10;;;3.50;;
79464;SDS011;68932;47.410;8.232;2023-10-09T11:32:37;12.00;;;3.00;;
79464;SDS011;68932;47.410;8.232;2023-10-09T11:35:13;9.30;;;2.50;;
79464;SDS011;68932;47.410;8.232;2023-10-09T11:37:42;10.40;;;3.10;;
79464;SDS011;68932;47.410;8.232;2023-10-09T11:42:59;10.30;;;3.20;;
79464;SDS011;68932;47.410;8.232;2023-10-09T11:45:28;13.60;;;3.80;;
79464;SDS011;68932;47.410;8.232;2023-10-09T11:47:57;11.80;;;4.00;;
79464;SDS011;68932;47.410;8.232;2023-10-09T11:50:43;11.20;;;3.30;;
79464;SDS011;68932;47.410;8.232;2023-10-09T11:53:12;12.70;;;3.20;;
79464;SDS011;68932;47.410;8.232;2023-10-09T11:55:40;11.60;;;3.50;;
79464;SDS011;68932;47.410;8.232;2023-10-09T11:58:09;9.80;;;3.10;;
79464;SDS011;68932;47.410;8.232;2023-10-09T12:00:37;17.40;;;3.60;;
79464;SDS011;68932;47.410;8.232;2023-10-09T12:03:05;8.70;;;2.80;;
79464;SDS011;68932;47.410;8.232;2023-10-09T12:05:33;12.30;;;3.40;;
79464;SDS011;68932;47.410;8.232;2023-10-09T12:08:03;12.90;;;3.30;;
79464;SDS011;68932;47.410;8.232;2023-10-09T12:10:32;11.10;;;3.50;;
79464;SDS011;68932;47.410;8.232;2023-10-09T12:13:00;11.60;;;3.40;;
79464;SDS011;68932;47.410;8.232;2023-10-09T12:15:29;11.40;;;3.20;;
79464;SDS011;68932;47.410;8.232;2023-10-09T12:17:57;17.70;;;3.10;;
79464;SDS011;68932;47.410;8.232;2023-10-09T12:20:25;12.50;;;3.70;;
79464;SDS011;68932;47.410;8.232;2023-10-09T12:22:54;12.00;;;3.20;;
79464;SDS011;68932;47.410;8.232;2023-10-09T12:25:23;14.30;;;3.90;;
79464;SDS011;68932;47.410;8.232;2023-10-09T12:27:51;13.50;;;3.70;;
79464;SDS011;68932;47.410;8.232;2023-10-09T12:30:19;15.30;;;4.30;;
79464;SDS011;68932;47.410;8.232;2023-10-09T12:32:48;11.30;;;3.10;;
79464;SDS011;68932;47.410;8.232;2023-10-09T12:35:16;10.60;;;3.00;;
79464;SDS011;68932;47.410;8.232;2023-10-09T12:37:45;15.90;;;3.60;;
79464;SDS011;68932;47.410;8.232;2023-10-09T12:40:13;10.60;;;3.50;;
79464;SDS011;68932;47.410;8.232;2023-10-09T12:42:41;12.00;;;3.50;;
79464;SDS011;68932;47.410;8.232;2023-10-09T12:45:11;11.70;;;3.60;;
79464;SDS011;68932;47.410;8.232;2023-10-09T12:47:39;11.90;;;3.60;;
79464;SDS011;68932;47.410;8.232;2023-10-09T12:50:08;17.80;;;4.10;;
79464;SDS011;68932;47.410;8.232;2023-10-09T12:52:37;14.70;;;3.30;;
79464;SDS011;68932;47.410;8.232;2023-10-09T12:55:06;12.50;;;3.70;;
79464;SDS011;68932;47.410;8.232;2023-10-09T12:57:35;10.80;;;3.50;;
79464;SDS011;68932;47.410;8.232;2023-10-09T13:00:05;11.60;;;3.30;;
79464;SDS011;68932;47.410;8.232;2023-10-09T13:02:34;11.70;;;3.10;;
79464;SDS011;68932;47.410;8.232;2023-10-09T13:05:02;11.00;;;3.30;;
79464;SDS011;68932;47.410;8.232;2023-10-09T13:07:32;11.70;;;3.50;;
79464;SDS011;68932;47.410;8.232;2023-10-09T13:10:00;11.40;;;3.60;;
79464;SDS011;68932;47.410;8.232;2023-10-09T13:12:29;10.40;;;3.30;;
79464;SDS011;68932;47.410;8.232;2023-10-09T13:14:57;11.40;;;3.40;;
79464;SDS011;68932;47.410;8.232;2023-10-09T13:17:25;12.60;;;3.10;;
79464;SDS011;68932;47.410;8.232;2023-10-09T13:19:53;12.20;;;3.50;;
79464;SDS011;68932;47.410;8.232;2023-10-09T13:22:22;12.70;;;3.80;;
79464;SDS011;68932;47.410;8.232;2023-10-09T13:24:50;14.50;;;3.30;;
79464;SDS011;68932;47.410;8.232;2023-10-09T13:27:19;14.70;;;3.70;;
79464;SDS011;68932;47.410;8.232;2023-10-09T13:29:47;13.20;;;3.50;;
79464;SDS011;68932;47.410;8.232;2023-10-09T13:32:15;13.50;;;3.70;;
79464;SDS011;68932;47.410;8.232;2023-10-09T13:34:43;11.80;;;3.50;;
79464;SDS011;68932;47.410;8.232;2023-10-09T13:37:12;10.40;;;4.10;;
79464;SDS011;68932;47.410;8.232;2023-10-09T13:39:40;15.10;;;4.20;;
79464;SDS011;68932;47.410;8.232;2023-10-09T13:42:09;14.20;;;4.10;;
79464;SDS011;68932;47.410;8.232;2023-10-09T13:44:37;19.00;;;4.20;;
79464;SDS011;68932;47.410;8.232;2023-10-09T13:47:05;11.80;;;4.10;;
79464;SDS011;68932;47.410;8.232;2023-10-09T13:49:33;11.10;;;3.10;;
79464;SDS011;68932;47.410;8.232;2023-10-09T13:52:02;11.60;;;3.80;;
79464;SDS011;68932;47.410;8.232;2023-10-09T13:54:31;17.70;;;3.80;;
79464;SDS011;68932;47.410;8.232;2023-10-09T13:56:59;12.20;;;3.60;;
79464;SDS011;68932;47.410;8.232;2023-10-09T13:59:28;13.00;;;3.20;;
79464;SDS011;68932;47.410;8.232;2023-10-09T14:01:56;12.50;;;3.90;;
79464;SDS011;68932;47.410;8.232;2023-10-09T14:04:25;13.40;;;3.80;;
79464;SDS011;68932;47.410;8.232;2023-10-09T14:06:53;10.70;;;3.80;;
79464;SDS011;68932;47.410;8.232;2023-10-09T14:09:22;12.30;;;3.90;;
79464;SDS011;68932;47.410;8.232;2023-10-09T14:11:51;16.90;;;4.60;;
79464;SDS011;68932;47.410;8.232;2023-10-09T14:14:19;9.10;;;3.90;;
79464;SDS011;68932;47.410;8.232;2023-10-09T14:16:47;12.80;;;3.50;;
79464;SDS011;68932;47.410;8.232;2023-10-09T14:19:15;11.70;;;3.30;;
79464;SDS011;68932;47.410;8.232;2023-10-09T14:21:44;16.00;;;4.30;;
79464;SDS011;68932;47.410;8.232;2023-10-09T14:24:12;11.60;;;3.70;;
79464;SDS011;68932;47.410;8.232;2023-10-09T14:26:40;9.80;;;4.30;;
79464;SDS011;68932;47.410;8.232;2023-10-09T14:29:09;14.60;;;3.70;;
79464;SDS011;68932;47.410;8.232;2023-10-09T14:31:38;16.50;;;4.20;;
79464;SDS011;68932;47.410;8.232;2023-10-09T14:34:06;14.50;;;4.30;;
79464;SDS011;68932;47.410;8.232;2023-10-09T14:36:35;10.10;;;3.70;;
79464;SDS011;68932;47.410;8.232;2023-10-09T14:39:03;16.00;;;4.20;;
79464;SDS011;68932;47.410;8.232;2023-10-09T14:41:31;14.70;;;3.80;;
79464;SDS011;68932;47.410;8.232;2023-10-09T14:44:00;11.30;;;3.70;;
79464;SDS011;68932;47.410;8.232;2023-10-09T14:46:28;16.00;;;4.40;;
79464;SDS011;68932;47.410;8.232;2023-10-09T14:48:56;12.70;;;3.50;;
79464;SDS011;68932;47.410;8.232;2023-10-09T14:51:24;12.60;;;3.80;;
79464;SDS011;68932;47.410;8.232;2023-10-09T14:53:56;13.10;;;4.10;;
79464;SDS011;68932;47.410;8.232;2023-10-09T14:56:25;11.80;;;4.20;;
79464;SDS011;68932;47.410;8.232;2023-10-09T14:58:54;10.90;;;4.00;;
79464;SDS011;68932;47.410;8.232;2023-10-09T15:01:23;14.00;;;4.20;;